Terminal Aerodrome Forecast
Issued by NWS Binghamton, NY

Home | Current Version | Previous Version | Text Only | Print | Product List | Glossary On
Versions: 1 2 3 4 5 6 7 8 9 10 11 12 13 14 15 16 17 18 19
882
FTUS41 KBGM 071135
TAFSYR
TAF
KSYR 071135Z 0712/0812 21009KT P6SM OVC022
      TEMPO 0712/0714 5SM -SN BR BKN015
     FM071500 25012KT P6SM BKN025
     FM071800 27013KT P6SM BKN035
     FM072100 26009KT P6SM BKN050
     FM080500 23008KT P6SM BKN025=

USA.gov is the U.S. government's official web portal to all federal, state and local government web resources and services.